sensor_id;sensor_type;location;lat;lon;timestamp;P1;durP1;ratioP1;P2;durP2;ratioP2
38621;SDS011;24380;51.132;5.360;2023-04-24T00:02:06;13.65;;;8.90;;
38621;SDS011;24380;51.132;5.360;2023-04-24T00:04:36;15.63;;;9.73;;
38621;SDS011;24380;51.132;5.360;2023-04-24T00:07:07;18.92;;;9.90;;
38621;SDS011;24380;51.132;5.360;2023-04-24T00:09:35;15.53;;;9.90;;
38621;SDS011;24380;51.132;5.360;2023-04-24T00:12:02;16.07;;;10.32;;
38621;SDS011;24380;51.132;5.360;2023-04-24T00:14:31;14.13;;;9.53;;
38621;SDS011;24380;51.132;5.360;2023-04-24T00:16:58;18.00;;;10.23;;
38621;SDS011;24380;51.132;5.360;2023-04-24T00:19:26;15.15;;;10.15;;
38621;SDS011;24380;51.132;5.360;2023-04-24T00:21:54;20.05;;;10.90;;
38621;SDS011;24380;51.132;5.360;2023-04-24T00:24:22;17.30;;;10.85;;
38621;SDS011;24380;51.132;5.360;2023-04-24T00:26:49;17.87;;;10.60;;
38621;SDS011;24380;51.132;5.360;2023-04-24T00:29:17;14.73;;;10.40;;
38621;SDS011;24380;51.132;5.360;2023-04-24T00:31:44;18.35;;;11.65;;
38621;SDS011;24380;51.132;5.360;2023-04-24T00:34:12;24.02;;;12.00;;
38621;SDS011;24380;51.132;5.360;2023-04-24T00:36:39;19.35;;;11.57;;
38621;SDS011;24380;51.132;5.360;2023-04-24T00:39:07;18.67;;;12.07;;
38621;SDS011;24380;51.132;5.360;2023-04-24T00:41:37;21.05;;;12.00;;
38621;SDS011;24380;51.132;5.360;2023-04-24T00:44:05;18.62;;;11.65;;
38621;SDS011;24380;51.132;5.360;2023-04-24T00:46:33;17.60;;;11.95;;
38621;SDS011;24380;51.132;5.360;2023-04-24T00:49:00;22.55;;;12.47;;
38621;SDS011;24380;51.132;5.360;2023-04-24T00:51:29;20.25;;;13.62;;
38621;SDS011;24380;51.132;5.360;2023-04-24T00:53:58;24.57;;;12.88;;
38621;SDS011;24380;51.132;5.360;2023-04-24T00:56:26;26.35;;;13.78;;
38621;SDS011;24380;51.132;5.360;2023-04-24T00:58:55;22.27;;;13.48;;
38621;SDS011;24380;51.132;5.360;2023-04-24T01:01:23;21.25;;;13.10;;
38621;SDS011;24380;51.132;5.360;2023-04-24T01:03:50;23.38;;;14.10;;
38621;SDS011;24380;51.132;5.360;2023-04-24T01:06:19;22.52;;;13.62;;
38621;SDS011;24380;51.132;5.360;2023-04-24T01:08:48;21.33;;;13.45;;
38621;SDS011;24380;51.132;5.360;2023-04-24T01:11:16;26.85;;;14.33;;
38621;SDS011;24380;51.132;5.360;2023-04-24T01:13:45;21.27;;;13.70;;
38621;SDS011;24380;51.132;5.360;2023-04-24T01:16:14;26.02;;;14.20;;
38621;SDS011;24380;51.132;5.360;2023-04-24T01:18:43;20.40;;;13.50;;
38621;SDS011;24380;51.132;5.360;2023-04-24T01:21:12;22.45;;;13.58;;
38621;SDS011;24380;51.132;5.360;2023-04-24T01:23:47;24.90;;;14.15;;
38621;SDS011;24380;51.132;5.360;2023-04-24T01:26:12;24.92;;;14.58;;
38621;SDS011;24380;51.132;5.360;2023-04-24T01:28:42;20.43;;;14.23;;
38621;SDS011;24380;51.132;5.360;2023-04-24T01:31:10;25.05;;;14.70;;
38621;SDS011;24380;51.132;5.360;2023-04-24T01:33:37;23.18;;;14.28;;
38621;SDS011;24380;51.132;5.360;2023-04-24T01:36:05;22.15;;;15.28;;
38621;SDS011;24380;51.132;5.360;2023-04-24T01:38:33;19.90;;;13.72;;
38621;SDS011;24380;51.132;5.360;2023-04-24T01:41:01;23.57;;;15.18;;
38621;SDS011;24380;51.132;5.360;2023-04-24T01:43:28;26.00;;;14.23;;
38621;SDS011;24380;51.132;5.360;2023-04-24T01:45:56;27.62;;;15.00;;
38621;SDS011;24380;51.132;5.360;2023-04-24T01:48:24;24.23;;;14.43;;
38621;SDS011;24380;51.132;5.360;2023-04-24T01:50:52;23.77;;;14.87;;
38621;SDS011;24380;51.132;5.360;2023-04-24T01:53:19;23.07;;;14.78;;
38621;SDS011;24380;51.132;5.360;2023-04-24T01:55:47;22.58;;;14.43;;
38621;SDS011;24380;51.132;5.360;2023-04-24T01:58:14;25.55;;;14.90;;
38621;SDS011;24380;51.132;5.360;2023-04-24T02:00:42;22.52;;;14.05;;
38621;SDS011;24380;51.132;5.360;2023-04-24T02:03:10;23.20;;;13.58;;
38621;SDS011;24380;51.132;5.360;2023-04-24T02:05:37;18.80;;;13.30;;
38621;SDS011;24380;51.132;5.360;2023-04-24T02:08:05;22.87;;;13.28;;
38621;SDS011;24380;51.132;5.360;2023-04-24T02:10:32;19.73;;;13.38;;
38621;SDS011;24380;51.132;5.360;2023-04-24T02:13:00;20.10;;;13.68;;
38621;SDS011;24380;51.132;5.360;2023-04-24T02:15:28;21.70;;;13.28;;
38621;SDS011;24380;51.132;5.360;2023-04-24T02:17:55;21.93;;;13.13;;
38621;SDS011;24380;51.132;5.360;2023-04-24T02:20:23;21.82;;;13.68;;
38621;SDS011;24380;51.132;5.360;2023-04-24T02:22:50;20.70;;;13.32;;
38621;SDS011;24380;51.132;5.360;2023-04-24T02:25:18;22.48;;;13.68;;
38621;SDS011;24380;51.132;5.360;2023-04-24T02:27:45;25.27;;;13.55;;
38621;SDS011;24380;51.132;5.360;2023-04-24T02:30:13;18.23;;;13.53;;
38621;SDS011;24380;51.132;5.360;2023-04-24T02:32:41;21.15;;;13.55;;
38621;SDS011;24380;51.132;5.360;2023-04-24T02:35:08;22.27;;;13.18;;
38621;SDS011;24380;51.132;5.360;2023-04-24T02:37:36;20.60;;;13.08;;
38621;SDS011;24380;51.132;5.360;2023-04-24T02:40:04;17.80;;;12.23;;
38621;SDS011;24380;51.132;5.360;2023-04-24T02:42:32;19.87;;;12.37;;
38621;SDS011;24380;51.132;5.360;2023-04-24T02:45:00;23.27;;;13.65;;
38621;SDS011;24380;51.132;5.360;2023-04-24T02:47:28;23.35;;;13.40;;
38621;SDS011;24380;51.132;5.360;2023-04-24T02:49:55;21.23;;;13.22;;
38621;SDS011;24380;51.132;5.360;2023-04-24T02:52:23;20.10;;;13.43;;
38621;SDS011;24380;51.132;5.360;2023-04-24T02:54:50;24.30;;;13.60;;
38621;SDS011;24380;51.132;5.360;2023-04-24T02:57:19;19.65;;;13.28;;
38621;SDS011;24380;51.132;5.360;2023-04-24T02:59:47;20.48;;;12.68;;
38621;SDS011;24380;51.132;5.360;2023-04-24T03:02:14;16.62;;;12.95;;
38621;SDS011;24380;51.132;5.360;2023-04-24T03:04:42;18.98;;;12.93;;
38621;SDS011;24380;51.132;5.360;2023-04-24T03:07:09;17.60;;;12.45;;
38621;SDS011;24380;51.132;5.360;2023-04-24T03:09:37;17.40;;;12.13;;
38621;SDS011;24380;51.132;5.360;2023-04-24T03:12:05;15.75;;;11.60;;
38621;SDS011;24380;51.132;5.360;2023-04-24T03:14:33;19.87;;;11.78;;
38621;SDS011;24380;51.132;5.360;2023-04-24T03:17:00;17.95;;;12.13;;
38621;SDS011;24380;51.132;5.360;2023-04-24T03:19:28;16.67;;;11.33;;
38621;SDS011;24380;51.132;5.360;2023-04-24T03:21:55;18.32;;;10.82;;
38621;SDS011;24380;51.132;5.360;2023-04-24T03:24:23;18.07;;;10.88;;
38621;SDS011;24380;51.132;5.360;2023-04-24T03:26:50;16.02;;;11.35;;
38621;SDS011;24380;51.132;5.360;2023-04-24T03:29:18;16.87;;;10.82;;
38621;SDS011;24380;51.132;5.360;2023-04-24T03:31:45;17.35;;;11.70;;
38621;SDS011;24380;51.132;5.360;2023-04-24T03:34:13;17.87;;;11.85;;
38621;SDS011;24380;51.132;5.360;2023-04-24T03:36:40;18.40;;;11.97;;
38621;SDS011;24380;51.132;5.360;2023-04-24T03:39:08;16.77;;;11.38;;
38621;SDS011;24380;51.132;5.360;2023-04-24T03:41:35;16.48;;;12.20;;
38621;SDS011;24380;51.132;5.360;2023-04-24T03:44:03;16.90;;;12.35;;
38621;SDS011;24380;51.132;5.360;2023-04-24T03:46:31;18.87;;;13.13;;
38621;SDS011;24380;51.132;5.360;2023-04-24T03:48:58;17.57;;;12.23;;
38621;SDS011;24380;51.132;5.360;2023-04-24T03:51:26;19.17;;;13.48;;
38621;SDS011;24380;51.132;5.360;2023-04-24T03:53:57;19.82;;;13.15;;
38621;SDS011;24380;51.132;5.360;2023-04-24T03:56:24;17.75;;;13.40;;
38621;SDS011;24380;51.132;5.360;2023-04-24T03:58:52;19.23;;;13.25;;
38621;SDS011;24380;51.132;5.360;2023-04-24T04:01:19;18.42;;;13.22;;
38621;SDS011;24380;51.132;5.360;2023-04-24T04:03:47;17.32;;;12.45;;
38621;SDS011;24380;51.132;5.360;2023-04-24T04:06:14;18.70;;;12.70;;
38621;SDS011;24380;51.132;5.360;2023-04-24T04:08:42;21.25;;;13.53;;
38621;SDS011;24380;51.132;5.360;2023-04-24T04:14:05;19.95;;;13.18;;
38621;SDS011;24380;51.132;5.360;2023-04-24T04:16:33;20.75;;;13.68;;
38621;SDS011;24380;51.132;5.360;2023-04-24T04:19:02;21.20;;;13.13;;
38621;SDS011;24380;51.132;5.360;2023-04-24T04:21:29;19.75;;;13.40;;
38621;SDS011;24380;51.132;5.360;2023-04-24T04:23:57;21.35;;;13.28;;
38621;SDS011;24380;51.132;5.360;2023-04-24T04:26:25;21.02;;;14.80;;
38621;SDS011;24380;51.132;5.360;2023-04-24T04:28:53;19.95;;;13.20;;
38621;SDS011;24380;51.132;5.360;2023-04-24T04:31:20;19.92;;;13.50;;
38621;SDS011;24380;51.132;5.360;2023-04-24T04:33:49;21.57;;;13.95;;
38621;SDS011;24380;51.132;5.360;2023-04-24T04:36:17;23.77;;;14.55;;
38621;SDS011;24380;51.132;5.360;2023-04-24T04:38:44;22.77;;;14.05;;
38621;SDS011;24380;51.132;5.360;2023-04-24T04:41:12;19.70;;;14.30;;
38621;SDS011;24380;51.132;5.360;2023-04-24T04:43:39;19.25;;;13.60;;
38621;SDS011;24380;51.132;5.360;2023-04-24T04:46:08;15.05;;;11.65;;
38621;SDS011;24380;51.132;5.360;2023-04-24T04:48:37;11.38;;;8.93;;
38621;SDS011;24380;51.132;5.360;2023-04-24T04:51:05;14.93;;;9.48;;
38621;SDS011;24380;51.132;5.360;2023-04-24T04:53:33;15.25;;;10.53;;
38621;SDS011;24380;51.132;5.360;2023-04-24T04:56:01;16.97;;;10.30;;
38621;SDS011;24380;51.132;5.360;2023-04-24T04:58:28;13.75;;;9.00;;
38621;SDS011;24380;51.132;5.360;2023-04-24T05:00:56;15.35;;;9.35;;
38621;SDS011;24380;51.132;5.360;2023-04-24T05:03:24;10.60;;;7.80;;
38621;SDS011;24380;51.132;5.360;2023-04-24T05:05:51;10.63;;;7.70;;
38621;SDS011;24380;51.132;5.360;2023-04-24T05:08:19;9.28;;;7.30;;
38621;SDS011;24380;51.132;5.360;2023-04-24T05:10:46;10.08;;;7.15;;
38621;SDS011;24380;51.132;5.360;2023-04-24T05:13:14;10.13;;;7.50;;
38621;SDS011;24380;51.132;5.360;2023-04-24T05:15:41;8.03;;;7.22;;
38621;SDS011;24380;51.132;5.360;2023-04-24T05:18:09;10.20;;;6.72;;
38621;SDS011;24380;51.132;5.360;2023-04-24T05:20:36;9.93;;;7.33;;
38621;SDS011;24380;51.132;5.360;2023-04-24T05:23:05;10.82;;;7.00;;
38621;SDS011;24380;51.132;5.360;2023-04-24T05:25:32;14.87;;;6.55;;
38621;SDS011;24380;51.132;5.360;2023-04-24T05:28:01;11.03;;;7.20;;
38621;SDS011;24380;51.132;5.360;2023-04-24T05:30:29;15.98;;;9.88;;
38621;SDS011;24380;51.132;5.360;2023-04-24T05:32:56;8.55;;;5.90;;
38621;SDS011;24380;51.132;5.360;2023-04-24T05:35:24;18.30;;;10.10;;
38621;SDS011;24380;51.132;5.360;2023-04-24T05:37:51;12.13;;;9.68;;
38621;SDS011;24380;51.132;5.360;2023-04-24T05:40:19;7.40;;;6.33;;
38621;SDS011;24380;51.132;5.360;2023-04-24T05:42:46;10.15;;;6.65;;
38621;SDS011;24380;51.132;5.360;2023-04-24T05:45:14;10.05;;;6.22;;
38621;SDS011;24380;51.132;5.360;2023-04-24T05:47:42;8.10;;;6.03;;
38621;SDS011;24380;51.132;5.360;2023-04-24T05:50:11;8.30;;;5.92;;
38621;SDS011;24380;51.132;5.360;2023-04-24T05:52:39;8.43;;;7.28;;
38621;SDS011;24380;51.132;5.360;2023-04-24T05:55:06;7.62;;;5.80;;
38621;SDS011;24380;51.132;5.360;2023-04-24T05:57:34;6.25;;;4.85;;
38621;SDS011;24380;51.132;5.360;2023-04-24T06:00:02;10.65;;;5.60;;
38621;SDS011;24380;51.132;5.360;2023-04-24T06:02:30;5.40;;;3.62;;
38621;SDS011;24380;51.132;5.360;2023-04-24T06:04:58;6.00;;;4.40;;
38621;SDS011;24380;51.132;5.360;2023-04-24T06:07:26;5.90;;;3.95;;
38621;SDS011;24380;51.132;5.360;2023-04-24T06:09:53;5.83;;;4.03;;
38621;SDS011;24380;51.132;5.360;2023-04-24T06:12:21;6.28;;;4.80;;
38621;SDS011;24380;51.132;5.360;2023-04-24T06:14:49;7.67;;;5.60;;
38621;SDS011;24380;51.132;5.360;2023-04-24T06:17:17;8.53;;;5.92;;
38621;SDS011;24380;51.132;5.360;2023-04-24T06:19:45;8.53;;;6.75;;
38621;SDS011;24380;51.132;5.360;2023-04-24T06:22:12;11.90;;;6.90;;
38621;SDS011;24380;51.132;5.360;2023-04-24T06:24:40;10.43;;;7.67;;
38621;SDS011;24380;51.132;5.360;2023-04-24T06:27:08;19.52;;;11.40;;
38621;SDS011;24380;51.132;5.360;2023-04-24T06:29:36;15.15;;;10.53;;
38621;SDS011;24380;51.132;5.360;2023-04-24T06:32:03;14.70;;;10.45;;
38621;SDS011;24380;51.132;5.360;2023-04-24T06:34:31;15.70;;;10.65;;
38621;SDS011;24380;51.132;5.360;2023-04-24T06:37:01;16.35;;;12.05;;
38621;SDS011;24380;51.132;5.360;2023-04-24T06:39:28;22.60;;;15.60;;
38621;SDS011;24380;51.132;5.360;2023-04-24T06:41:56;18.07;;;11.97;;
38621;SDS011;24380;51.132;5.360;2023-04-24T06:44:24;15.40;;;11.15;;
38621;SDS011;24380;51.132;5.360;2023-04-24T06:46:51;13.60;;;9.90;;
38621;SDS011;24380;51.132;5.360;2023-04-24T06:49:19;16.75;;;10.13;;
38621;SDS011;24380;51.132;5.360;2023-04-24T06:51:46;14.78;;;9.53;;
38621;SDS011;24380;51.132;5.360;2023-04-24T06:54:14;13.38;;;7.67;;
38621;SDS011;24380;51.132;5.360;2023-04-24T06:56:41;11.18;;;7.08;;
38621;SDS011;24380;51.132;5.360;2023-04-24T06:59:10;9.08;;;6.28;;
38621;SDS011;24380;51.132;5.360;2023-04-24T07:01:38;13.83;;;6.08;;
38621;SDS011;24380;51.132;5.360;2023-04-24T07:04:06;9.80;;;6.47;;
38621;SDS011;24380;51.132;5.360;2023-04-24T07:06:33;10.30;;;6.80;;
38621;SDS011;24380;51.132;5.360;2023-04-24T07:09:01;9.45;;;7.42;;
38621;SDS011;24380;51.132;5.360;2023-04-24T07:11:29;8.88;;;6.40;;
38621;SDS011;24380;51.132;5.360;2023-04-24T07:13:57;12.15;;;7.12;;
38621;SDS011;24380;51.132;5.360;2023-04-24T07:16:24;10.60;;;6.80;;
38621;SDS011;24380;51.132;5.360;2023-04-24T07:18:52;10.65;;;7.28;;
38621;SDS011;24380;51.132;5.360;2023-04-24T07:21:20;11.08;;;6.53;;
38621;SDS011;24380;51.132;5.360;2023-04-24T07:23:47;10.98;;;7.20;;
38621;SDS011;24380;51.132;5.360;2023-04-24T07:26:15;12.55;;;7.55;;
38621;SDS011;24380;51.132;5.360;2023-04-24T07:28:43;12.98;;;7.20;;
38621;SDS011;24380;51.132;5.360;2023-04-24T07:31:11;12.15;;;7.25;;
38621;SDS011;24380;51.132;5.360;2023-04-24T07:33:38;14.20;;;7.28;;
38621;SDS011;24380;51.132;5.360;2023-04-24T07:36:06;16.27;;;7.53;;
38621;SDS011;24380;51.132;5.360;2023-04-24T07:38:34;11.80;;;7.65;;
38621;SDS011;24380;51.132;5.360;2023-04-24T07:41:01;14.65;;;7.53;;
38621;SDS011;24380;51.132;5.360;2023-04-24T07:43:29;15.32;;;7.70;;
38621;SDS011;24380;51.132;5.360;2023-04-24T07:45:56;13.93;;;7.25;;
38621;SDS011;24380;51.132;5.360;2023-04-24T07:48:24;10.53;;;7.22;;
38621;SDS011;24380;51.132;5.360;2023-04-24T07:50:52;12.90;;;7.45;;
38621;SDS011;24380;51.132;5.360;2023-04-24T07:53:20;11.35;;;7.50;;
38621;SDS011;24380;51.132;5.360;2023-04-24T07:55:48;11.55;;;7.37;;
38621;SDS011;24380;51.132;5.360;2023-04-24T07:58:15;12.80;;;7.85;;
38621;SDS011;24380;51.132;5.360;2023-04-24T08:00:43;11.70;;;6.70;;
38621;SDS011;24380;51.132;5.360;2023-04-24T08:03:11;13.65;;;6.87;;
38621;SDS011;24380;51.132;5.360;2023-04-24T08:05:38;11.95;;;7.92;;
38621;SDS011;24380;51.132;5.360;2023-04-24T08:08:08;12.07;;;7.70;;
38621;SDS011;24380;51.132;5.360;2023-04-24T08:10:36;13.95;;;7.70;;
38621;SDS011;24380;51.132;5.360;2023-04-24T08:13:03;11.45;;;7.92;;
38621;SDS011;24380;51.132;5.360;2023-04-24T08:15:31;14.73;;;7.55;;
38621;SDS011;24380;51.132;5.360;2023-04-24T08:17:58;16.85;;;7.67;;
38621;SDS011;24380;51.132;5.360;2023-04-24T08:20:26;13.15;;;7.45;;
38621;SDS011;24380;51.132;5.360;2023-04-24T08:22:53;16.12;;;7.85;;
38621;SDS011;24380;51.132;5.360;2023-04-24T08:25:22;14.00;;;7.28;;
38621;SDS011;24380;51.132;5.360;2023-04-24T08:27:50;11.80;;;7.25;;
38621;SDS011;24380;51.132;5.360;2023-04-24T08:30:18;12.78;;;7.40;;
38621;SDS011;24380;51.132;5.360;2023-04-24T08:32:46;16.48;;;9.05;;
38621;SDS011;24380;51.132;5.360;2023-04-24T08:35:14;13.83;;;8.18;;
38621;SDS011;24380;51.132;5.360;2023-04-24T08:37:41;9.30;;;5.70;;
38621;SDS011;24380;51.132;5.360;2023-04-24T08:40:12;19.55;;;9.90;;
38621;SDS011;24380;51.132;5.360;2023-04-24T08:42:42;12.37;;;6.15;;
38621;SDS011;24380;51.132;5.360;2023-04-24T08:45:11;12.00;;;6.20;;
38621;SDS011;24380;51.132;5.360;2023-04-24T08:47:40;12.75;;;6.65;;
38621;SDS011;24380;51.132;5.360;2023-04-24T08:50:08;12.93;;;5.00;;
38621;SDS011;24380;51.132;5.360;2023-04-24T08:52:36;13.72;;;5.12;;
38621;SDS011;24380;51.132;5.360;2023-04-24T08:55:04;11.83;;;4.65;;
38621;SDS011;24380;51.132;5.360;2023-04-24T08:57:32;13.83;;;4.90;;
38621;SDS011;24380;51.132;5.360;2023-04-24T09:00:02;11.65;;;5.03;;
38621;SDS011;24380;51.132;5.360;2023-04-24T09:02:30;12.30;;;5.17;;
38621;SDS011;24380;51.132;5.360;2023-04-24T09:05:00;10.88;;;4.97;;
38621;SDS011;24380;51.132;5.360;2023-04-24T09:07:29;15.58;;;5.28;;
38621;SDS011;24380;51.132;5.360;2023-04-24T09:09:59;11.50;;;4.93;;
38621;SDS011;24380;51.132;5.360;2023-04-24T09:12:27;12.88;;;4.90;;
38621;SDS011;24380;51.132;5.360;2023-04-24T09:14:55;11.93;;;4.55;;
38621;SDS011;24380;51.132;5.360;2023-04-24T09:17:24;11.12;;;4.10;;
38621;SDS011;24380;51.132;5.360;2023-04-24T09:19:54;11.50;;;4.25;;
38621;SDS011;24380;51.132;5.360;2023-04-24T09:22:22;10.48;;;3.83;;
38621;SDS011;24380;51.132;5.360;2023-04-24T09:24:59;9.75;;;4.15;;
38621;SDS011;24380;51.132;5.360;2023-04-24T09:27:31;9.43;;;2.52;;
38621;SDS011;24380;51.132;5.360;2023-04-24T09:29:59;7.40;;;2.90;;
38621;SDS011;24380;51.132;5.360;2023-04-24T09:32:27;6.30;;;2.58;;
38621;SDS011;24380;51.132;5.360;2023-04-24T09:35:13;9.10;;;2.67;;
38621;SDS011;24380;51.132;5.360;2023-04-24T09:37:42;10.05;;;3.10;;
38621;SDS011;24380;51.132;5.360;2023-04-24T09:42:44;7.95;;;2.77;;
38621;SDS011;24380;51.132;5.360;2023-04-24T09:45:20;7.97;;;3.15;;
38621;SDS011;24380;51.132;5.360;2023-04-24T09:47:51;10.13;;;2.85;;
38621;SDS011;24380;51.132;5.360;2023-04-24T09:50:20;11.50;;;3.50;;
38621;SDS011;24380;51.132;5.360;2023-04-24T09:53:04;9.98;;;3.17;;
38621;SDS011;24380;51.132;5.360;2023-04-24T09:55:35;12.70;;;3.90;;
38621;SDS011;24380;51.132;5.360;2023-04-24T09:58:08;14.47;;;3.58;;
38621;SDS011;24380;51.132;5.360;2023-04-24T10:00:36;14.75;;;4.37;;
38621;SDS011;24380;51.132;5.360;2023-04-24T10:03:04;11.00;;;3.70;;
38621;SDS011;24380;51.132;5.360;2023-04-24T10:05:33;13.45;;;3.92;;
38621;SDS011;24380;51.132;5.360;2023-04-24T10:08:02;11.33;;;3.65;;
38621;SDS011;24380;51.132;5.360;2023-04-24T10:13:00;11.95;;;4.30;;
38621;SDS011;24380;51.132;5.360;2023-04-24T10:15:27;12.70;;;4.22;;
38621;SDS011;24380;51.132;5.360;2023-04-24T10:17:55;12.80;;;4.30;;
38621;SDS011;24380;51.132;5.360;2023-04-24T10:20:28;12.18;;;4.10;;
38621;SDS011;24380;51.132;5.360;2023-04-24T10:22:57;14.83;;;4.80;;
38621;SDS011;24380;51.132;5.360;2023-04-24T10:25:26;12.18;;;4.28;;
38621;SDS011;24380;51.132;5.360;2023-04-24T10:27:56;11.75;;;4.20;;
38621;SDS011;24380;51.132;5.360;2023-04-24T10:30:26;13.08;;;4.80;;
38621;SDS011;24380;51.132;5.360;2023-04-24T10:32:55;12.68;;;4.65;;
38621;SDS011;24380;51.132;5.360;2023-04-24T10:35:23;14.05;;;5.40;;
38621;SDS011;24380;51.132;5.360;2023-04-24T10:38:03;13.45;;;4.15;;
38621;SDS011;24380;51.132;5.360;2023-04-24T10:40:32;8.88;;;3.72;;
38621;SDS011;24380;51.132;5.360;2023-04-24T10:43:04;9.63;;;2.70;;
38621;SDS011;24380;51.132;5.360;2023-04-24T10:45:35;7.17;;;2.80;;
38621;SDS011;24380;51.132;5.360;2023-04-24T10:48:04;6.75;;;2.42;;
38621;SDS011;24380;51.132;5.360;2023-04-24T10:50:47;8.55;;;2.50;;
38621;SDS011;24380;51.132;5.360;2023-04-24T10:53:20;6.05;;;2.22;;
38621;SDS011;24380;51.132;5.360;2023-04-24T10:56:08;5.10;;;1.95;;
38621;SDS011;24380;51.132;5.360;2023-04-24T10:58:37;5.72;;;2.83;;
38621;SDS011;24380;51.132;5.360;2023-04-24T11:01:27;6.42;;;2.12;;
38621;SDS011;24380;51.132;5.360;2023-04-24T11:04:00;9.80;;;2.60;;
38621;SDS011;24380;51.132;5.360;2023-04-24T11:06:29;7.90;;;2.62;;
38621;SDS011;24380;51.132;5.360;2023-04-24T11:09:04;8.68;;;3.10;;
38621;SDS011;24380;51.132;5.360;2023-04-24T11:11:37;10.43;;;2.80;;
38621;SDS011;24380;51.132;5.360;2023-04-24T11:14:07;7.33;;;2.93;;
38621;SDS011;24380;51.132;5.360;2023-04-24T11:16:42;6.37;;;2.60;;
38621;SDS011;24380;51.132;5.360;2023-04-24T11:22:02;8.05;;;2.77;;
38621;SDS011;24380;51.132;5.360;2023-04-24T11:27:20;9.88;;;2.67;;
38621;SDS011;24380;51.132;5.360;2023-04-24T11:32:30;7.90;;;3.30;;
38621;SDS011;24380;51.132;5.360;2023-04-24T11:35:15;8.35;;;3.05;;
38621;SDS011;24380;51.132;5.360;2023-04-24T11:37:45;7.22;;;2.80;;
38621;SDS011;24380;51.132;5.360;2023-04-24T11:40:17;7.55;;;2.60;;
38621;SDS011;24380;51.132;5.360;2023-04-24T11:42:50;7.67;;;2.70;;
38621;SDS011;24380;51.132;5.360;2023-04-24T11:45:24;11.10;;;3.30;;
38621;SDS011;24380;51.132;5.360;2023-04-24T11:47:52;11.97;;;3.75;;
38621;SDS011;24380;51.132;5.360;2023-04-24T11:50:26;7.30;;;2.67;;
38621;SDS011;24380;51.132;5.360;2023-04-24T11:52:52;5.00;;;3.00;;
38621;SDS011;24380;51.132;5.360;2023-04-24T11:57:55;9.45;;;4.58;;
38621;SDS011;24380;51.132;5.360;2023-04-24T12:00:25;8.75;;;3.40;;
38621;SDS011;24380;51.132;5.360;2023-04-24T12:03:05;8.20;;;2.77;;
38621;SDS011;24380;51.132;5.360;2023-04-24T12:05:34;6.47;;;3.00;;
38621;SDS011;24380;51.132;5.360;2023-04-24T12:08:02;7.40;;;3.27;;
38621;SDS011;24380;51.132;5.360;2023-04-24T12:10:31;9.08;;;3.42;;
38621;SDS011;24380;51.132;5.360;2023-04-24T12:13:00;6.45;;;2.83;;
38621;SDS011;24380;51.132;5.360;2023-04-24T12:15:28;7.72;;;3.22;;
38621;SDS011;24380;51.132;5.360;2023-04-24T12:17:55;6.28;;;2.70;;
38621;SDS011;24380;51.132;5.360;2023-04-24T12:20:31;10.48;;;4.47;;
38621;SDS011;24380;51.132;5.360;2023-04-24T12:22:59;10.98;;;4.50;;
38621;SDS011;24380;51.132;5.360;2023-04-24T12:25:28;8.53;;;3.08;;
38621;SDS011;24380;51.132;5.360;2023-04-24T12:33:19;7.25;;;2.83;;
38621;SDS011;24380;51.132;5.360;2023-04-24T12:35:48;5.00;;;2.50;;
38621;SDS011;24380;51.132;5.360;2023-04-24T12:38:25;4.22;;;2.67;;
38621;SDS011;24380;51.132;5.360;2023-04-24T12:41:01;5.42;;;2.50;;
38621;SDS011;24380;51.132;5.360;2023-04-24T12:43:32;4.80;;;2.20;;
38621;SDS011;24380;51.132;5.360;2023-04-24T12:46:01;3.05;;;1.87;;
38621;SDS011;24380;51.132;5.360;2023-04-24T12:48:29;4.92;;;1.95;;
38621;SDS011;24380;51.132;5.360;2023-04-24T12:50:57;4.10;;;3.12;;
38621;SDS011;24380;51.132;5.360;2023-04-24T12:53:27;5.53;;;3.50;;
38621;SDS011;24380;51.132;5.360;2023-04-24T12:55:56;5.93;;;2.07;;
38621;SDS011;24380;51.132;5.360;2023-04-24T12:58:24;5.35;;;2.52;;
38621;SDS011;24380;51.132;5.360;2023-04-24T13:00:52;6.67;;;1.70;;
38621;SDS011;24380;51.132;5.360;2023-04-24T13:03:20;5.33;;;2.47;;
38621;SDS011;24380;51.132;5.360;2023-04-24T13:05:48;5.15;;;1.98;;
38621;SDS011;24380;51.132;5.360;2023-04-24T13:08:15;5.22;;;2.33;;
38621;SDS011;24380;51.132;5.360;2023-04-24T13:10:43;5.87;;;3.12;;
38621;SDS011;24380;51.132;5.360;2023-04-24T13:13:11;5.22;;;2.42;;
38621;SDS011;24380;51.132;5.360;2023-04-24T13:15:38;3.65;;;1.60;;
38621;SDS011;24380;51.132;5.360;2023-04-24T13:18:06;8.18;;;1.62;;
38621;SDS011;24380;51.132;5.360;2023-04-24T13:20:33;2.72;;;1.65;;
38621;SDS011;24380;51.132;5.360;2023-04-24T13:23:01;5.37;;;1.98;;
38621;SDS011;24380;51.132;5.360;2023-04-24T13:25:35;4.15;;;1.77;;
38621;SDS011;24380;51.132;5.360;2023-04-24T13:30:26;3.55;;;1.70;;
38621;SDS011;24380;51.132;5.360;2023-04-24T13:32:54;5.12;;;1.75;;
38621;SDS011;24380;51.132;5.360;2023-04-24T13:35:21;3.20;;;1.98;;
38621;SDS011;24380;51.132;5.360;2023-04-24T13:37:49;4.00;;;1.95;;
38621;SDS011;24380;51.132;5.360;2023-04-24T13:40:16;3.10;;;1.80;;
38621;SDS011;24380;51.132;5.360;2023-04-24T13:42:44;5.65;;;1.70;;
38621;SDS011;24380;51.132;5.360;2023-04-24T13:45:11;2.47;;;1.75;;
38621;SDS011;24380;51.132;5.360;2023-04-24T13:47:40;3.95;;;1.62;;
38621;SDS011;24380;51.132;5.360;2023-04-24T13:50:08;10.40;;;2.40;;
38621;SDS011;24380;51.132;5.360;2023-04-24T13:52:36;5.10;;;2.00;;
38621;SDS011;24380;51.132;5.360;2023-04-24T13:57:50;4.42;;;1.77;;
38621;SDS011;24380;51.132;5.360;2023-04-24T14:00:19;10.50;;;4.05;;
38621;SDS011;24380;51.132;5.360;2023-04-24T14:02:48;3.77;;;2.47;;
38621;SDS011;24380;51.132;5.360;2023-04-24T14:05:16;7.17;;;2.80;;
38621;SDS011;24380;51.132;5.360;2023-04-24T14:07:44;8.93;;;3.42;;
38621;SDS011;24380;51.132;5.360;2023-04-24T14:10:11;8.80;;;4.60;;
38621;SDS011;24380;51.132;5.360;2023-04-24T14:12:39;4.40;;;3.17;;
38621;SDS011;24380;51.132;5.360;2023-04-24T14:15:07;7.00;;;2.95;;
38621;SDS011;24380;51.132;5.360;2023-04-24T14:17:35;5.60;;;2.60;;
38621;SDS011;24380;51.132;5.360;2023-04-24T14:20:03;5.35;;;2.40;;
38621;SDS011;24380;51.132;5.360;2023-04-24T14:22:32;4.80;;;2.83;;
38621;SDS011;24380;51.132;5.360;2023-04-24T14:25:00;7.92;;;4.92;;
38621;SDS011;24380;51.132;5.360;2023-04-24T14:27:27;8.08;;;4.35;;
38621;SDS011;24380;51.132;5.360;2023-04-24T14:29:56;6.10;;;2.72;;
38621;SDS011;24380;51.132;5.360;2023-04-24T14:32:23;4.20;;;2.20;;
38621;SDS011;24380;51.132;5.360;2023-04-24T14:34:51;3.10;;;1.98;;
38621;SDS011;24380;51.132;5.360;2023-04-24T14:37:19;3.80;;;2.40;;
38621;SDS011;24380;51.132;5.360;2023-04-24T14:39:46;3.90;;;2.10;;
38621;SDS011;24380;51.132;5.360;2023-04-24T14:42:14;5.53;;;2.00;;
38621;SDS011;24380;51.132;5.360;2023-04-24T14:44:42;5.12;;;2.30;;
38621;SDS011;24380;51.132;5.360;2023-04-24T14:47:10;3.42;;;2.05;;
38621;SDS011;24380;51.132;5.360;2023-04-24T14:49:38;4.03;;;2.12;;
38621;SDS011;24380;51.132;5.360;2023-04-24T14:52:05;3.90;;;2.08;;
38621;SDS011;24380;51.132;5.360;2023-04-24T14:54:33;5.00;;;1.92;;
38621;SDS011;24380;51.132;5.360;2023-04-24T14:57:00;3.62;;;1.75;;
38621;SDS011;24380;51.132;5.360;2023-04-24T14:59:28;3.10;;;2.00;;
38621;SDS011;24380;51.132;5.360;2023-04-24T15:01:57;5.12;;;2.10;;
38621;SDS011;24380;51.132;5.360;2023-04-24T15:04:24;3.75;;;2.02;;
38621;SDS011;24380;51.132;5.360;2023-04-24T15:06:52;2.77;;;1.77;;
38621;SDS011;24380;51.132;5.360;2023-04-24T15:09:20;2.65;;;1.90;;
38621;SDS011;24380;51.132;5.360;2023-04-24T15:11:48;4.92;;;1.90;;
38621;SDS011;24380;51.132;5.360;2023-04-24T15:14:16;3.35;;;1.72;;